createdAt,value
2019-01-31T00:00:30.124Z,96219.02
2019-01-31T00:03:11.975Z,96221.60
2019-01-31T00:06:06.504Z,96215.17
2019-01-31T00:08:46.217Z,96212.60
2019-01-31T00:11:26.341Z,96212.59
2019-01-31T00:14:02.497Z,96213.43
2019-01-31T00:16:50.120Z,96212.58
2019-01-31T00:19:26.132Z,96211.77
2019-01-31T00:22:07.452Z,96208.84
2019-01-31T00:24:42.927Z,96217.48
2019-01-31T00:27:24.769Z,96211.49
2019-01-31T00:30:00.251Z,96214.48
2019-01-31T00:32:46.359Z,96214.48
2019-01-31T00:35:57.233Z,96216.70
2019-01-31T00:38:35.410Z,96212.42
2019-01-31T00:41:31.167Z,96220.59
2019-01-31T00:44:32.030Z,96220.59
2019-01-31T00:47:16.765Z,96220.23
2019-01-31T00:50:10.351Z,96223.67
2019-01-31T00:52:48.938Z,96225.37
2019-01-31T00:55:27.324Z,96224.97
2019-01-31T00:58:21.398Z,96225.42
2019-01-31T01:01:03.903Z,96235.74
2019-01-31T01:03:59.705Z,96241.75
2019-01-31T01:06:37.781Z,96239.56
2019-01-31T01:09:37.884Z,96245.98
2019-01-31T01:12:19.224Z,96245.96
2019-01-31T01:15:20.539Z,96242.55
2019-01-31T01:18:01.382Z,96248.53
2019-01-31T01:20:57.674Z,96248.97
2019-01-31T01:23:36.404Z,96247.23
2019-01-31T01:26:28.215Z,96248.98
2019-01-31T01:29:11.392Z,96254.55
2019-01-31T01:31:53.169Z,96256.31
2019-01-31T01:35:01.447Z,96258.45
2019-01-31T01:37:44.080Z,96258.44
2019-01-31T01:40:31.885Z,96259.26
2019-01-31T01:43:13.545Z,96252.85
2019-01-31T01:46:00.890Z,96252.85
2019-01-31T01:48:46.405Z,96254.16
2019-01-31T01:51:24.695Z,96251.63
2019-01-31T01:54:30.870Z,96250.34
2019-01-31T01:57:30.677Z,96252.05
2019-01-31T02:00:06.244Z,96243.90
2019-01-31T02:03:00.883Z,96242.63
2019-01-31T02:05:52.848Z,96244.31
2019-01-31T02:08:53.627Z,96235.78
2019-01-31T02:11:41.238Z,96230.25
2019-01-31T02:14:33.230Z,96228.93
2019-01-31T02:17:11.891Z,96225.52
2019-01-31T02:19:52.746Z,96220.41
2019-01-31T02:22:33.890Z,96223.43
2019-01-31T02:25:16.514Z,96223.84
2019-01-31T02:28:04.033Z,96212.73
2019-01-31T02:30:45.033Z,96204.16
2019-01-31T02:33:32.361Z,96203.74
2019-01-31T02:36:19.747Z,96203.33
2019-01-31T02:39:18.969Z,96201.58
2019-01-31T02:42:00.500Z,96204.16
2019-01-31T02:45:04.556Z,96193.02
2019-01-31T02:47:49.130Z,96189.13
2019-01-31T02:50:30.610Z,96183.16
2019-01-31T02:53:16.540Z,96180.59
2019-01-31T02:56:13.391Z,96179.34
2019-01-31T02:59:02.488Z,96176.36
2019-01-31T03:02:05.773Z,96172.10
2019-01-31T03:04:43.963Z,96175.98
2019-01-31T03:07:36.078Z,96173.41
2019-01-31T03:10:34.030Z,96176.41
2019-01-31T03:13:15.008Z,96181.57
2019-01-31T03:16:16.081Z,96176.05
2019-01-31T03:18:54.118Z,96170.91
2019-01-31T03:21:57.626Z,96179.47
2019-01-31T03:24:35.872Z,96168.78
2019-01-31T03:27:23.477Z,96170.09
2019-01-31T03:30:28.940Z,96180.38
2019-01-31T03:33:09.983Z,96174.41
2019-01-31T03:35:51.343Z,96178.70
2019-01-31T03:38:31.908Z,96176.56
2019-01-31T03:41:10.118Z,96184.27
2019-01-31T03:43:54.345Z,96185.16
2019-01-31T03:46:50.102Z,96183.47
2019-01-31T03:49:46.410Z,96184.30
2019-01-31T03:52:49.065Z,96192.02
2019-01-31T03:55:36.606Z,96189.87
2019-01-31T03:58:23.465Z,96189.42
2019-01-31T04:01:11.009Z,96194.13
2019-01-31T04:03:50.673Z,96197.17
2019-01-31T04:06:26.964Z,96205.30
2019-01-31T04:08:59.405Z,96202.30
2019-01-31T04:11:29.149Z,96206.98
2019-01-31T04:14:01.523Z,96205.69
2019-01-31T04:16:31.282Z,96209.53
2019-01-31T04:19:01.002Z,96203.14
2019-01-31T04:21:30.926Z,96198.42
2019-01-31T04:24:00.837Z,96200.55
2019-01-31T04:26:31.058Z,96201.84
2019-01-31T04:29:00.853Z,96198.44
2019-01-31T04:31:33.230Z,96196.30
2019-01-31T04:34:05.725Z,96200.13
2019-01-31T04:36:38.632Z,96203.56
2019-01-31T04:39:09.563Z,96193.30
2019-01-31T04:41:42.026Z,96191.98
2019-01-31T04:44:11.986Z,96194.59
2019-01-31T04:46:44.421Z,96198.42
2019-01-31T04:49:14.208Z,96197.14
2019-01-31T04:51:43.982Z,96193.25
2019-01-31T04:54:13.804Z,96192.86
2019-01-31T04:56:46.319Z,96197.55
2019-01-31T04:59:16.134Z,96186.89
2019-01-31T05:01:46.019Z,96190.28
2019-01-31T05:04:15.951Z,96189.45
2019-01-31T05:06:45.757Z,96194.59
2019-01-31T05:09:15.551Z,96201.44
2019-01-31T05:11:45.466Z,96202.69
2019-01-31T05:14:15.637Z,96207.41
2019-01-31T05:16:45.607Z,96209.95
2019-01-31T05:19:15.664Z,96215.52
2019-01-31T05:21:45.520Z,96212.08
2019-01-31T05:24:15.277Z,96207.39
2019-01-31T05:26:45.089Z,96216.37
2019-01-31T05:29:14.909Z,96219.80
2019-01-31T05:31:44.839Z,96222.78
2019-01-31T05:34:14.629Z,96225.36
2019-01-31T05:36:44.524Z,96215.92
2019-01-31T05:39:14.350Z,96220.63
2019-01-31T05:41:44.243Z,96218.05
2019-01-31T05:44:14.218Z,96219.78
2019-01-31T05:46:44.027Z,96229.20
2019-01-31T05:49:16.506Z,96219.86
2019-01-31T05:51:46.322Z,96221.69
2019-01-31T05:54:16.089Z,96216.11
2019-01-31T05:56:45.862Z,96211.61
2019-01-31T05:59:15.655Z,96215.17
2019-01-31T06:01:45.384Z,96215.34
2019-01-31T06:04:15.214Z,96215.34
2019-01-31T06:06:44.986Z,96210.40
2019-01-31T06:09:14.765Z,96225.35
2019-01-31T06:11:44.547Z,96225.35
2019-01-31T06:14:14.333Z,96235.00
2019-01-31T06:16:44.153Z,96235.00
2019-01-31T06:19:13.952Z,96230.33
2019-01-31T06:21:43.738Z,96235.91
2019-01-31T06:24:13.448Z,96245.33
2019-01-31T06:26:43.179Z,96242.76
2019-01-31T06:29:13.521Z,96249.63
2019-01-31T06:31:43.272Z,96248.34
2019-01-31T06:34:13.107Z,96256.09
2019-01-31T06:36:42.894Z,96251.37
2019-01-31T06:39:12.580Z,96247.94
2019-01-31T06:41:42.385Z,96256.49
2019-01-31T06:44:12.263Z,96257.38
2019-01-31T06:46:41.885Z,96253.95
2019-01-31T06:49:11.704Z,96262.94
2019-01-31T06:51:41.490Z,96257.38
2019-01-31T06:54:11.301Z,96264.64
2019-01-31T06:56:40.989Z,96269.75
2019-01-31T06:59:10.695Z,96270.66
2019-01-31T07:01:40.546Z,96275.78
2019-01-31T07:04:11.124Z,96269.23
2019-01-31T07:06:41.065Z,96270.88
2019-01-31T07:09:10.891Z,96271.38
2019-01-31T07:11:40.983Z,96275.69
2019-01-31T07:14:10.673Z,96270.16
2019-01-31T07:16:40.384Z,96279.15
2019-01-31T07:19:10.065Z,96283.84
2019-01-31T07:21:39.853Z,96286.41
2019-01-31T07:24:09.550Z,96289.00
2019-01-31T07:26:41.448Z,96294.14
2019-01-31T07:29:12.291Z,96287.72
2019-01-31T07:31:42.042Z,96291.11
2019-01-31T07:34:11.888Z,96287.27
2019-01-31T07:36:41.563Z,96285.11
2019-01-31T07:39:11.262Z,96291.94
2019-01-31T07:41:41.791Z,96294.50
2019-01-31T07:44:11.719Z,96295.36
2019-01-31T07:46:41.521Z,96292.76
2019-01-31T07:49:11.219Z,96291.89
2019-01-31T07:51:42.653Z,96294.90
2019-01-31T07:54:12.430Z,96302.16
2019-01-31T07:56:42.231Z,96301.31
2019-01-31T07:59:12.097Z,96298.70
2019-01-31T08:01:41.897Z,96302.98
2019-01-31T08:04:11.700Z,96299.98
2019-01-31T08:06:41.546Z,96302.52
2019-01-31T08:09:11.272Z,96312.39
2019-01-31T08:11:52.127Z,96307.64
2019-01-31T08:14:12.545Z,96311.91
2019-01-31T08:16:42.326Z,96316.19
2019-01-31T08:19:12.346Z,96317.03
2019-01-31T08:21:42.124Z,96316.62
2019-01-31T08:24:11.990Z,96320.91
2019-01-31T08:26:41.815Z,96319.17
2019-01-31T08:29:11.632Z,96321.75
2019-01-31T08:31:41.501Z,96329.00
2019-01-31T08:34:11.349Z,96313.66
2019-01-31T08:36:41.186Z,96315.80
2019-01-31T08:39:10.980Z,96315.00
2019-01-31T08:41:40.752Z,96315.44
2019-01-31T08:44:10.718Z,96313.30
2019-01-31T08:46:40.566Z,96317.67
2019-01-31T08:49:10.318Z,96320.64
2019-01-31T08:51:40.108Z,96323.22
2019-01-31T08:54:09.906Z,96331.70
2019-01-31T08:56:39.696Z,96321.40
2019-01-31T08:59:09.584Z,96332.08
2019-01-31T09:01:39.397Z,96327.38
2019-01-31T09:04:09.226Z,96330.77
2019-01-31T09:06:39.030Z,96325.57
2019-01-31T09:09:10.329Z,96315.62
2019-01-31T09:11:40.142Z,96325.38
2019-01-31T09:14:09.962Z,96321.44
2019-01-31T09:16:39.815Z,96321.39
2019-01-31T09:19:09.596Z,96327.71
2019-01-31T09:21:40.507Z,96330.72
2019-01-31T09:24:15.850Z,96332.88
2019-01-31T09:27:22.004Z,96340.97
2019-01-31T09:30:16.000Z,96340.49
2019-01-31T09:32:54.967Z,96338.35
2019-01-31T09:35:33.753Z,96338.67
2019-01-31T09:38:28.133Z,96334.78
2019-01-31T09:41:08.513Z,96334.78
2019-01-31T09:43:44.104Z,96338.90
2019-01-31T09:46:33.645Z,96338.42
2019-01-31T09:49:26.842Z,96339.78
2019-01-31T09:52:09.322Z,96339.39
2019-01-31T09:54:42.227Z,96341.48
2019-01-31T09:57:31.226Z,96340.07
2019-01-31T10:00:13.755Z,96340.07
2019-01-31T10:03:06.153Z,96334.66
2019-01-31T10:06:05.501Z,96331.12
2019-01-31T10:08:46.806Z,96331.12
2019-01-31T10:11:42.342Z,96326.36
2019-01-31T10:14:24.329Z,96316.48
2019-01-31T10:16:59.892Z,96320.25
2019-01-31T10:19:56.662Z,96318.38
2019-01-31T10:22:43.111Z,96318.38
2019-01-31T10:25:16.634Z,96321.41
2019-01-31T10:28:04.564Z,96315.94
2019-01-31T10:30:55.514Z,96313.33
2019-01-31T10:33:44.698Z,96319.48
2019-01-31T10:36:34.229Z,96312.59
2019-01-31T10:39:18.913Z,96314.91
2019-01-31T10:42:15.928Z,96317.44
2019-01-31T10:44:48.765Z,96316.49
2019-01-31T10:47:24.749Z,96319.11
2019-01-31T10:50:00.599Z,96313.41
2019-01-31T10:52:36.334Z,96303.87
2019-01-31T10:55:24.346Z,96308.47
2019-01-31T10:58:02.999Z,96308.47
2019-01-31T11:00:35.967Z,96303.20
2019-01-31T11:03:28.442Z,96303.20
2019-01-31T11:06:10.384Z,96302.80
2019-01-31T11:08:55.236Z,96303.92
2019-01-31T11:11:31.112Z,96293.11
2019-01-31T11:14:23.363Z,96290.80
2019-01-31T11:17:15.751Z,96279.64
2019-01-31T11:19:51.469Z,96281.72
2019-01-31T11:22:27.085Z,96281.72
2019-01-31T11:25:27.475Z,96283.42
2019-01-31T11:28:28.967Z,96279.98
2019-01-31T11:31:10.894Z,96248.34
2019-01-31T11:34:00.201Z,96269.66
2019-01-31T11:36:47.670Z,96269.73
2019-01-31T11:39:32.363Z,96272.56
2019-01-31T11:42:21.686Z,96271.09
2019-01-31T11:45:11.125Z,96269.03
2019-01-31T11:47:56.085Z,96273.16
2019-01-31T11:50:50.172Z,96272.23
2019-01-31T11:53:41.081Z,96280.47
2019-01-31T11:56:31.782Z,96280.53
2019-01-31T11:59:04.043Z,96279.38
2019-01-31T12:01:33.766Z,96280.19
2019-01-31T12:04:05.959Z,96274.21
2019-01-31T12:06:35.783Z,96274.21
2019-01-31T12:09:10.580Z,96280.60
2019-01-31T12:11:40.346Z,96267.69
2019-01-31T12:14:10.171Z,96267.69
2019-01-31T12:16:39.941Z,96271.27
2019-01-31T12:19:09.764Z,96263.38
2019-01-31T12:21:39.626Z,96257.57
2019-01-31T12:24:16.053Z,96251.48
2019-01-31T12:26:41.036Z,96253.06
2019-01-31T12:29:10.821Z,96253.73
2019-01-31T12:31:40.597Z,96253.41
2019-01-31T12:34:10.437Z,96258.58
2019-01-31T12:36:40.238Z,96259.79
2019-01-31T12:39:10.480Z,96255.44
2019-01-31T12:41:40.323Z,96250.41
2019-01-31T12:44:10.199Z,96246.39
2019-01-31T12:46:40.043Z,96243.16
2019-01-31T12:49:09.826Z,96241.70
2019-01-31T12:51:39.587Z,96239.17
2019-01-31T12:54:09.399Z,96232.10
2019-01-31T12:56:39.147Z,96231.61
2019-01-31T12:59:08.987Z,96233.55
2019-01-31T13:01:38.706Z,96227.38
2019-01-31T13:04:08.474Z,96225.14
2019-01-31T13:06:38.360Z,96219.20
2019-01-31T13:09:09.395Z,96219.81
2019-01-31T13:11:39.570Z,96226.73
2019-01-31T13:14:09.434Z,96226.03
2019-01-31T13:16:39.193Z,96219.41
2019-01-31T13:19:08.984Z,96220.09
2019-01-31T13:21:38.783Z,96220.62
2019-01-31T13:24:08.598Z,96220.58
2019-01-31T13:26:38.368Z,96216.86
2019-01-31T13:29:08.142Z,96215.75
2019-01-31T13:31:37.927Z,96217.23
2019-01-31T13:34:07.747Z,96212.54
2019-01-31T13:36:37.601Z,96215.16
2019-01-31T13:39:09.627Z,96212.72
2019-01-31T13:41:41.821Z,96217.66
2019-01-31T13:44:10.899Z,96220.13
2019-01-31T13:46:40.807Z,96220.87
2019-01-31T13:49:10.728Z,96224.34
2019-01-31T13:51:40.520Z,96225.20
2019-01-31T13:54:10.348Z,96221.33
2019-01-31T13:56:45.743Z,96221.91
2019-01-31T13:59:11.662Z,96219.94
2019-01-31T14:01:41.449Z,96223.77
2019-01-31T14:04:11.259Z,96222.52
2019-01-31T14:06:41.013Z,96224.25
2019-01-31T14:09:10.809Z,96220.41
2019-01-31T14:11:40.630Z,96214.30
2019-01-31T14:14:10.426Z,96219.83
2019-01-31T14:16:47.264Z,96222.93
2019-01-31T14:19:11.734Z,96220.69
2019-01-31T14:21:44.091Z,96212.16
2019-01-31T14:24:13.025Z,96217.77
2019-01-31T14:26:42.841Z,96226.59
2019-01-31T14:29:12.613Z,96227.85
2019-01-31T14:31:42.408Z,96196.97
2019-01-31T14:34:12.323Z,96225.10
2019-01-31T14:36:42.089Z,96220.05
2019-01-31T14:39:12.002Z,96222.31
2019-01-31T14:41:41.814Z,96222.31
2019-01-31T14:44:20.215Z,96211.14
2019-01-31T14:46:43.141Z,96211.14
2019-01-31T14:49:12.946Z,96212.16
2019-01-31T14:51:42.698Z,96226.45
2019-01-31T14:54:12.540Z,96229.18
2019-01-31T14:56:42.685Z,96228.39
2019-01-31T14:59:12.488Z,96235.11
2019-01-31T15:01:42.326Z,96230.83
2019-01-31T15:04:12.226Z,96237.25
2019-01-31T15:06:42.022Z,96230.83
2019-01-31T15:09:11.773Z,96232.15
2019-01-31T15:11:41.584Z,96241.56
2019-01-31T15:14:11.330Z,96241.03
2019-01-31T15:16:41.103Z,96243.62
2019-01-31T15:19:10.957Z,96247.45
2019-01-31T15:21:40.699Z,96255.31
2019-01-31T15:24:10.553Z,96251.91
2019-01-31T15:26:40.412Z,96248.48
2019-01-31T15:29:10.180Z,96251.97
2019-01-31T15:31:39.933Z,96261.38
2019-01-31T15:34:09.699Z,96254.11
2019-01-31T15:36:39.568Z,96253.75
2019-01-31T15:39:09.428Z,96255.56
2019-01-31T15:41:39.263Z,96255.59
2019-01-31T15:44:09.128Z,96259.09
2019-01-31T15:46:39.032Z,96257.01
2019-01-31T15:49:08.865Z,96264.72
2019-01-31T15:51:38.806Z,96257.39
2019-01-31T15:54:08.923Z,96260.00
2019-01-31T15:56:38.858Z,96253.58
2019-01-31T15:59:09.393Z,96257.42
2019-01-31T16:01:39.193Z,96259.51
2019-01-31T16:04:09.042Z,96258.19
2019-01-31T16:06:38.917Z,96251.17
2019-01-31T16:09:09.459Z,96255.50
2019-01-31T16:11:39.232Z,96252.73
2019-01-31T16:14:09.190Z,96251.41
2019-01-31T16:16:39.042Z,96263.96
2019-01-31T16:19:08.826Z,96265.69
2019-01-31T16:21:38.648Z,96273.95
2019-01-31T16:24:08.522Z,96272.66
2019-01-31T16:26:38.383Z,96270.92
2019-01-31T16:29:08.206Z,96276.98
2019-01-31T16:31:38.239Z,96279.55
2019-01-31T16:34:08.204Z,96276.15
2019-01-31T16:36:38.014Z,96268.08
2019-01-31T16:39:08.808Z,96268.08
2019-01-31T16:41:38.644Z,96279.16
2019-01-31T16:44:09.068Z,96276.15
2019-01-31T16:46:38.885Z,96276.20
2019-01-31T16:49:08.628Z,96285.22
2019-01-31T16:51:38.434Z,96283.08
2019-01-31T16:54:08.365Z,96288.67
2019-01-31T16:56:38.280Z,96290.81
2019-01-31T16:59:08.224Z,96293.79
2019-01-31T17:01:38.012Z,96290.33
2019-01-31T17:04:07.867Z,96283.88
2019-01-31T17:06:37.709Z,96283.88
2019-01-31T17:09:08.809Z,96288.61
2019-01-31T17:11:38.632Z,96294.17
2019-01-31T17:14:08.413Z,96290.74
2019-01-31T17:16:38.253Z,96289.92
2019-01-31T17:19:08.033Z,96295.48
2019-01-31T17:21:38.013Z,96299.74
2019-01-31T17:24:08.573Z,96300.30
2019-01-31T17:26:38.351Z,96298.73
2019-01-31T17:29:08.159Z,96297.55
2019-01-31T17:31:37.977Z,96292.62
2019-01-31T17:34:07.952Z,96301.42
2019-01-31T17:36:37.833Z,96292.03
2019-01-31T17:39:08.709Z,96292.06
2019-01-31T17:41:38.623Z,96298.64
2019-01-31T17:44:08.460Z,96299.14
2019-01-31T17:46:38.461Z,96296.52
2019-01-31T17:49:08.326Z,96299.92
2019-01-31T17:51:38.188Z,96302.87
2019-01-31T17:54:07.984Z,96293.83
2019-01-31T17:56:37.834Z,96297.77
2019-01-31T17:59:07.695Z,96297.77
2019-01-31T18:01:37.687Z,96304.16
2019-01-31T18:04:07.618Z,96314.89
2019-01-31T18:06:37.528Z,96308.09
2019-01-31T18:09:09.126Z,96308.61
2019-01-31T18:11:38.948Z,96311.28
2019-01-31T18:14:08.896Z,96311.28
2019-01-31T18:16:38.671Z,96319.05
2019-01-31T18:19:08.485Z,96313.92
2019-01-31T18:21:38.286Z,96313.92
2019-01-31T18:24:08.194Z,96319.95
2019-01-31T18:26:38.024Z,96313.13
2019-01-31T18:29:07.745Z,96326.45
2019-01-31T18:31:37.604Z,96326.45
2019-01-31T18:34:07.402Z,96332.45
2019-01-31T18:36:37.239Z,96330.75
2019-01-31T18:39:08.666Z,96330.30
2019-01-31T18:41:38.466Z,96337.16
2019-01-31T18:44:11.138Z,96335.43
2019-01-31T18:46:41.253Z,96340.58
2019-01-31T18:49:11.124Z,96341.04
2019-01-31T18:51:41.039Z,96342.74
2019-01-31T18:54:12.460Z,96346.56
2019-01-31T18:56:42.371Z,96339.30
2019-01-31T18:59:12.241Z,96339.30
2019-01-31T19:01:42.193Z,96341.80
2019-01-31T19:04:12.004Z,96338.84
2019-01-31T19:06:41.833Z,96337.12
2019-01-31T19:09:11.717Z,96336.26
2019-01-31T19:11:41.558Z,96327.24
2019-01-31T19:14:14.289Z,96328.57
2019-01-31T19:16:42.887Z,96342.66
2019-01-31T19:19:12.858Z,96335.92
2019-01-31T19:21:42.693Z,96335.92
2019-01-31T19:24:12.639Z,96338.51
2019-01-31T19:26:42.523Z,96340.30
2019-01-31T19:29:12.391Z,96335.97
2019-01-31T19:31:42.329Z,96335.08
2019-01-31T19:34:12.245Z,96333.34
2019-01-31T19:36:42.072Z,96331.64
2019-01-31T19:39:13.492Z,96330.30
2019-01-31T19:41:43.423Z,96321.77
2019-01-31T19:44:13.245Z,96321.77
2019-01-31T19:46:43.083Z,96329.46
2019-01-31T19:49:12.945Z,96317.48
2019-01-31T19:51:43.534Z,96317.48
2019-01-31T19:54:13.411Z,96317.48
2019-01-31T19:56:43.233Z,96319.19
2019-01-31T19:59:13.117Z,96318.34
2019-01-31T20:01:43.091Z,96314.95
2019-01-31T20:04:13.073Z,96306.76
2019-01-31T20:06:42.891Z,96300.16
2019-01-31T20:09:14.248Z,96299.01
2019-01-31T20:11:44.090Z,96300.42
2019-01-31T20:14:13.918Z,96306.18
2019-01-31T20:16:43.752Z,96309.31
2019-01-31T20:19:13.562Z,96323.98
2019-01-31T20:21:43.421Z,96324.02
2019-01-31T20:24:13.174Z,96326.59
2019-01-31T20:26:42.994Z,96337.29
2019-01-31T20:29:12.954Z,96337.29
2019-01-31T20:31:42.722Z,96334.72
2019-01-31T20:34:12.518Z,96338.56
2019-01-31T20:36:42.321Z,96342.44
2019-01-31T20:39:12.152Z,96339.42
2019-01-31T20:41:53.477Z,96339.44
2019-01-31T20:44:13.521Z,96335.20
2019-01-31T20:46:43.353Z,96342.05
2019-01-31T20:49:13.173Z,96343.84
2019-01-31T20:51:43.133Z,96343.84
2019-01-31T20:54:12.890Z,96337.83
2019-01-31T20:56:42.614Z,96338.74
2019-01-31T20:59:12.482Z,96340.00
2019-01-31T21:01:42.327Z,96340.00
2019-01-31T21:04:12.192Z,96342.59
2019-01-31T21:06:42.072Z,96344.25
2019-01-31T21:09:11.965Z,96350.22
2019-01-31T21:11:41.740Z,96343.34
2019-01-31T21:14:11.714Z,96346.33
2019-01-31T21:16:51.282Z,96345.02
2019-01-31T21:19:13.202Z,96339.84
2019-01-31T21:21:43.004Z,96339.84
2019-01-31T21:24:12.798Z,96335.55
2019-01-31T21:26:42.618Z,96317.95
2019-01-31T21:29:12.624Z,96326.48
2019-01-31T21:31:42.448Z,96320.05
2019-01-31T21:34:12.239Z,96320.05
2019-01-31T21:36:42.058Z,96313.63
2019-01-31T21:39:11.984Z,96312.73
2019-01-31T21:41:41.802Z,96308.89
2019-01-31T21:44:11.593Z,96306.30
2019-01-31T21:46:41.400Z,96306.30
2019-01-31T21:49:11.201Z,96312.72
2019-01-31T21:51:41.043Z,96320.03
2019-01-31T21:54:11.015Z,96320.03
2019-01-31T21:56:40.789Z,96311.42
2019-01-31T21:59:10.548Z,96311.42
2019-01-31T22:01:40.333Z,96307.19
2019-01-31T22:04:10.293Z,96316.62
2019-01-31T22:06:40.086Z,96314.48
2019-01-31T22:09:09.887Z,96314.48
2019-01-31T22:11:39.640Z,96315.77
2019-01-31T22:14:10.389Z,96317.07
2019-01-31T22:16:40.162Z,96313.66
2019-01-31T22:19:09.996Z,96319.24
2019-01-31T22:21:39.772Z,96318.83
2019-01-31T22:24:09.524Z,96324.83
2019-01-31T22:26:39.332Z,96328.28
2019-01-31T22:29:09.147Z,96334.72
2019-01-31T22:31:39.001Z,96324.45
2019-01-31T22:34:08.811Z,96325.75
2019-01-31T22:36:38.569Z,96332.23
2019-01-31T22:39:08.805Z,96318.47
2019-01-31T22:41:38.572Z,96318.47
2019-01-31T22:44:08.383Z,96322.47
2019-01-31T22:46:38.202Z,96321.11
2019-01-31T22:49:07.981Z,96317.41
2019-01-31T22:51:37.792Z,96317.41
2019-01-31T22:54:07.727Z,96304.36
2019-01-31T22:56:37.492Z,96309.50
2019-01-31T22:59:07.269Z,96304.06
2019-01-31T23:01:38.544Z,96299.45
2019-01-31T23:04:08.289Z,96302.12
2019-01-31T23:06:38.110Z,96297.37
2019-01-31T23:09:08.705Z,96297.37
2019-01-31T23:11:38.532Z,96301.27
2019-01-31T23:14:08.282Z,96299.55
2019-01-31T23:16:38.094Z,96302.05
2019-01-31T23:19:08.946Z,96296.45
2019-01-31T23:21:38.692Z,96301.08
2019-01-31T23:24:08.506Z,96301.05
2019-01-31T23:26:38.326Z,96291.28
2019-01-31T23:29:08.084Z,96299.77
2019-01-31T23:31:37.892Z,96303.22
2019-01-31T23:34:07.721Z,96303.22
2019-01-31T23:36:37.583Z,96297.58
2019-01-31T23:39:08.900Z,96299.23
2019-01-31T23:41:38.701Z,96299.23
2019-01-31T23:44:08.491Z,96300.47
2019-01-31T23:46:38.293Z,96289.33
2019-01-31T23:49:08.161Z,96289.33
2019-01-31T23:51:37.925Z,96292.30
2019-01-31T23:54:07.732Z,96292.30
2019-01-31T23:56:37.516Z,96291.06
2019-01-31T23:59:07.313Z,96291.06
